sensor_id;sensor_type;location;lat;lon;timestamp;pressure;altitude;pressure_sealevel;temperature;humidity
13581;BME280;6861;46.170;7.222;2022-10-16T00:00:47;96181.13;;;16.99;57.77
13581;BME280;6861;46.170;7.222;2022-10-16T00:03:45;96197.34;;;17.07;57.91
13581;BME280;6861;46.170;7.222;2022-10-16T00:09:38;96194.09;;;17.10;57.22
13581;BME280;6861;46.170;7.222;2022-10-16T00:15:27;96195.78;;;17.06;57.27
13581;BME280;6861;46.170;7.222;2022-10-16T00:17:54;96198.44;;;17.06;57.28
13581;BME280;6861;46.170;7.222;2022-10-16T00:20:21;96184.72;;;17.03;57.59
13581;BME280;6861;46.170;7.222;2022-10-16T00:22:47;96198.44;;;17.06;56.91
13581;BME280;6861;46.170;7.222;2022-10-16T00:25:16;96197.16;;;17.03;57.69
13581;BME280;6861;46.170;7.222;2022-10-16T00:27:43;96194.03;;;17.01;57.29
13581;BME280;6861;46.170;7.222;2022-10-16T00:30:10;96207.56;;;16.99;57.10
13581;BME280;6861;46.170;7.222;2022-10-16T00:32:37;96210.69;;;17.01;57.11
13581;BME280;6861;46.170;7.222;2022-10-16T00:35:05;96208.53;;;17.03;56.75
13581;BME280;6861;46.170;7.222;2022-10-16T00:37:32;96209.59;;;17.02;56.91
13581;BME280;6861;46.170;7.222;2022-10-16T00:39:59;96207.38;;;16.96;57.53
13581;BME280;6861;46.170;7.222;2022-10-16T00:42:27;96212.00;;;16.90;56.95
13581;BME280;6861;46.170;7.222;2022-10-16T00:44:56;96211.50;;;16.88;57.62
13581;BME280;6861;46.170;7.222;2022-10-16T00:47:26;96209.94;;;16.87;57.27
13581;BME280;6861;46.170;7.222;2022-10-16T00:49:59;96210.25;;;16.86;57.19
13581;BME280;6861;46.170;7.222;2022-10-16T00:52:26;96212.41;;;16.84;57.79
13581;BME280;6861;46.170;7.222;2022-10-16T00:54:54;96204.88;;;16.77;57.29
13581;BME280;6861;46.170;7.222;2022-10-16T00:57:22;96218.19;;;16.72;57.87
13581;BME280;6861;46.170;7.222;2022-10-16T00:59:51;96207.25;;;16.65;57.94
13581;BME280;6861;46.170;7.222;2022-10-16T01:02:18;96215.84;;;16.57;58.44
13581;BME280;6861;46.170;7.222;2022-10-16T01:04:48;96213.75;;;16.45;58.19
13581;BME280;6861;46.170;7.222;2022-10-16T01:07:23;96205.91;;;16.40;58.00
13581;BME280;6861;46.170;7.222;2022-10-16T01:10:00;96215.69;;;16.39;58.54
13581;BME280;6861;46.170;7.222;2022-10-16T01:12:34;96213.75;;;16.45;58.28
13581;BME280;6861;46.170;7.222;2022-10-16T01:15:10;96217.63;;;16.48;57.75
13581;BME280;6861;46.170;7.222;2022-10-16T01:17:45;96220.75;;;16.50;58.12
13581;BME280;6861;46.170;7.222;2022-10-16T01:20:22;96228.38;;;16.51;57.85
13581;BME280;6861;46.170;7.222;2022-10-16T01:23:02;96216.06;;;16.47;57.74
13581;BME280;6861;46.170;7.222;2022-10-16T01:25:44;96214.69;;;16.49;57.72
13581;BME280;6861;46.170;7.222;2022-10-16T01:28:17;96214.53;;;16.46;57.71
13581;BME280;6861;46.170;7.222;2022-10-16T01:30:46;96225.88;;;16.46;57.99
13581;BME280;6861;46.170;7.222;2022-10-16T01:33:17;96224.09;;;16.42;57.80
13581;BME280;6861;46.170;7.222;2022-10-16T01:35:50;96221.09;;;16.34;57.93
13581;BME280;6861;46.170;7.222;2022-10-16T01:38:21;96222.94;;;16.34;58.31
13581;BME280;6861;46.170;7.222;2022-10-16T01:40:53;96225.09;;;16.32;58.26
13581;BME280;6861;46.170;7.222;2022-10-16T01:43:27;96226.16;;;16.31;58.22
13581;BME280;6861;46.170;7.222;2022-10-16T01:45:59;96224.91;;;16.28;58.03
13581;BME280;6861;46.170;7.222;2022-10-16T01:48:29;96218.63;;;16.24;58.04
13581;BME280;6861;46.170;7.222;2022-10-16T01:51:06;96227.63;;;16.23;57.99
13581;BME280;6861;46.170;7.222;2022-10-16T01:53:35;96222.94;;;16.20;57.89
13581;BME280;6861;46.170;7.222;2022-10-16T01:56:06;96226.06;;;16.22;58.19
13581;BME280;6861;46.170;7.222;2022-10-16T01:58:41;96230.56;;;16.22;58.09
13581;BME280;6861;46.170;7.222;2022-10-16T02:01:11;96223.72;;;16.21;57.87
13581;BME280;6861;46.170;7.222;2022-10-16T02:03:40;96229.41;;;16.14;58.11
13581;BME280;6861;46.170;7.222;2022-10-16T02:06:09;96231.53;;;16.12;58.10
13581;BME280;6861;46.170;7.222;2022-10-16T02:08:37;96236.81;;;16.12;58.42
13581;BME280;6861;46.170;7.222;2022-10-16T02:11:06;96233.09;;;16.13;58.02
13581;BME280;6861;46.170;7.222;2022-10-16T02:13:37;96234.47;;;16.11;57.66
13581;BME280;6861;46.170;7.222;2022-10-16T02:16:06;96237.41;;;16.09;58.41
13581;BME280;6861;46.170;7.222;2022-10-16T02:18:33;96235.84;;;16.08;57.80
13581;BME280;6861;46.170;7.222;2022-10-16T02:21:02;96237.41;;;16.09;57.73
13581;BME280;6861;46.170;7.222;2022-10-16T02:23:37;96239.56;;;16.07;58.01
13581;BME280;6861;46.170;7.222;2022-10-16T02:26:09;96239.06;;;16.05;58.20
13581;BME280;6861;46.170;7.222;2022-10-16T02:28:42;96241.81;;;16.00;58.57
13581;BME280;6861;46.170;7.222;2022-10-16T02:31:13;96238.56;;;15.89;58.72
13581;BME280;6861;46.170;7.222;2022-10-16T02:33:43;96242.06;;;15.85;58.46
13581;BME280;6861;46.170;7.222;2022-10-16T02:36:12;96248.91;;;15.86;58.55
13581;BME280;6861;46.170;7.222;2022-10-16T02:38:40;96253.53;;;15.94;58.57
13581;BME280;6861;46.170;7.222;2022-10-16T02:41:08;96238.66;;;15.98;57.68
13581;BME280;6861;46.170;7.222;2022-10-16T02:43:35;96238.56;;;16.03;58.15
13581;BME280;6861;46.170;7.222;2022-10-16T02:46:03;96237.22;;;16.05;58.00
13581;BME280;6861;46.170;7.222;2022-10-16T02:48:30;96247.97;;;16.09;57.54
13581;BME280;6861;46.170;7.222;2022-10-16T02:50:57;96243.75;;;16.08;57.44
13581;BME280;6861;46.170;7.222;2022-10-16T02:53:24;96251.47;;;16.04;57.34
13581;BME280;6861;46.170;7.222;2022-10-16T02:55:51;96249.44;;;16.01;57.78
13581;BME280;6861;46.170;7.222;2022-10-16T02:58:18;96257.94;;;15.98;57.95
13581;BME280;6861;46.170;7.222;2022-10-16T03:00:45;96257.16;;;15.98;58.08
13581;BME280;6861;46.170;7.222;2022-10-16T03:03:13;96257.94;;;15.98;57.66
13581;BME280;6861;46.170;7.222;2022-10-16T03:05:40;96261.16;;;15.95;57.76
13581;BME280;6861;46.170;7.222;2022-10-16T03:08:07;96253.03;;;15.92;57.99
13581;BME280;6861;46.170;7.222;2022-10-16T03:10:34;96263.19;;;15.85;57.91
13581;BME280;6861;46.170;7.222;2022-10-16T03:13:00;96250.84;;;15.80;58.25
13581;BME280;6861;46.170;7.222;2022-10-16T03:15:28;96252.00;;;15.74;58.51
13581;BME280;6861;46.170;7.222;2022-10-16T03:17:55;96251.31;;;15.68;58.47
13581;BME280;6861;46.170;7.222;2022-10-16T03:20:25;96249.84;;;15.62;58.93
13581;BME280;6861;46.170;7.222;2022-10-16T03:22:52;96259.59;;;15.62;58.95
13581;BME280;6861;46.170;7.222;2022-10-16T03:25:19;96256.09;;;15.66;58.77
13581;BME280;6861;46.170;7.222;2022-10-16T03:27:46;96257.88;;;15.71;58.26
13581;BME280;6861;46.170;7.222;2022-10-16T03:30:13;96259.22;;;15.68;58.97
13581;BME280;6861;46.170;7.222;2022-10-16T03:32:39;96266.44;;;15.63;58.57
13581;BME280;6861;46.170;7.222;2022-10-16T03:35:07;96269.19;;;15.58;58.96
13581;BME280;6861;46.170;7.222;2022-10-16T03:37:35;96273.94;;;15.56;59.25
13581;BME280;6861;46.170;7.222;2022-10-16T03:40:03;96264.25;;;15.51;58.68
13581;BME280;6861;46.170;7.222;2022-10-16T03:42:30;96265.81;;;15.52;58.83
13581;BME280;6861;46.170;7.222;2022-10-16T03:44:57;96269.53;;;15.51;58.91
13581;BME280;6861;46.170;7.222;2022-10-16T03:47:23;96271.88;;;15.53;59.02
13581;BME280;6861;46.170;7.222;2022-10-16T03:49:50;96268.97;;;15.54;59.02
13581;BME280;6861;46.170;7.222;2022-10-16T03:52:17;96265.63;;;15.49;58.60
13581;BME280;6861;46.170;7.222;2022-10-16T03:54:46;96269.03;;;15.49;58.78
13581;BME280;6861;46.170;7.222;2022-10-16T03:57:12;96260.91;;;15.46;59.05
13581;BME280;6861;46.170;7.222;2022-10-16T03:59:39;96266.19;;;15.46;59.08
13581;BME280;6861;46.170;7.222;2022-10-16T04:02:06;96268.53;;;15.47;59.01
13581;BME280;6861;46.170;7.222;2022-10-16T04:04:33;96270.88;;;15.49;58.42
13581;BME280;6861;46.170;7.222;2022-10-16T04:07:00;96264.53;;;15.50;58.46
13581;BME280;6861;46.170;7.222;2022-10-16T04:09:27;96264.84;;;15.48;58.77
13581;BME280;6861;46.170;7.222;2022-10-16T04:11:55;96260.13;;;15.45;58.26
13581;BME280;6861;46.170;7.222;2022-10-16T04:14:22;96268.53;;;15.47;58.42
13581;BME280;6861;46.170;7.222;2022-10-16T04:16:49;96270.09;;;15.48;58.32
13581;BME280;6861;46.170;7.222;2022-10-16T04:19:16;96272.25;;;15.46;58.49
13581;BME280;6861;46.170;7.222;2022-10-16T04:21:43;96272.75;;;15.48;58.75
13581;BME280;6861;46.170;7.222;2022-10-16T04:24:10;96275.19;;;15.45;58.55
13581;BME280;6861;46.170;7.222;2022-10-16T04:26:37;96275.97;;;15.45;58.95
13581;BME280;6861;46.170;7.222;2022-10-16T04:29:05;96265.41;;;15.45;58.33
13581;BME280;6861;46.170;7.222;2022-10-16T04:31:32;96275.97;;;15.45;58.94
13581;BME280;6861;46.170;7.222;2022-10-16T04:33:59;96276.44;;;15.47;58.54
13581;BME280;6861;46.170;7.222;2022-10-16T04:36:26;96279.88;;;15.48;58.73
13581;BME280;6861;46.170;7.222;2022-10-16T04:38:53;96282.50;;;15.48;58.53
13581;BME280;6861;46.170;7.222;2022-10-16T04:41:20;96283.59;;;15.47;58.48
13581;BME280;6861;46.170;7.222;2022-10-16T04:43:47;96288.06;;;15.46;58.72
13581;BME280;6861;46.170;7.222;2022-10-16T04:46:15;96285.72;;;15.45;58.43
13581;BME280;6861;46.170;7.222;2022-10-16T04:48:42;96286.50;;;15.45;58.38
13581;BME280;6861;46.170;7.222;2022-10-16T04:51:09;96286.00;;;15.43;58.23
13581;BME280;6861;46.170;7.222;2022-10-16T04:53:36;96291.06;;;15.39;58.58
13581;BME280;6861;46.170;7.222;2022-10-16T04:56:03;96281.31;;;15.40;58.54
13581;BME280;6861;46.170;7.222;2022-10-16T04:58:30;96288.94;;;15.41;58.37
13581;BME280;6861;46.170;7.222;2022-10-16T05:00:57;96279.25;;;15.37;58.49
13581;BME280;6861;46.170;7.222;2022-10-16T05:03:26;96283.03;;;15.31;58.19
13581;BME280;6861;46.170;7.222;2022-10-16T05:05:53;96281.97;;;15.32;58.23
13581;BME280;6861;46.170;7.222;2022-10-16T05:08:19;96285.09;;;15.34;58.24
13581;BME280;6861;46.170;7.222;2022-10-16T05:10:46;96290.06;;;15.35;57.94
13581;BME280;6861;46.170;7.222;2022-10-16T05:13:13;96291.34;;;15.38;58.12
13581;BME280;6861;46.170;7.222;2022-10-16T05:15:40;96287.94;;;15.37;57.87
13581;BME280;6861;46.170;7.222;2022-10-16T05:18:08;96295.28;;;15.40;57.79
13581;BME280;6861;46.170;7.222;2022-10-16T05:20:37;96292.94;;;15.39;57.67
13581;BME280;6861;46.170;7.222;2022-10-16T05:23:03;96286.16;;;15.33;58.14
13581;BME280;6861;46.170;7.222;2022-10-16T05:25:30;96295.78;;;15.24;58.08
13581;BME280;6861;46.170;7.222;2022-10-16T05:27:58;96295.06;;;15.18;58.06
13581;BME280;6861;46.170;7.222;2022-10-16T05:30:25;96301.41;;;15.17;57.88
13581;BME280;6861;46.170;7.222;2022-10-16T05:32:52;96294.78;;;15.20;58.12
13581;BME280;6861;46.170;7.222;2022-10-16T05:35:19;96301.06;;;15.24;58.11
13581;BME280;6861;46.170;7.222;2022-10-16T05:37:47;96298.41;;;15.24;57.91
13581;BME280;6861;46.170;7.222;2022-10-16T05:40:15;96300.50;;;15.27;58.01
13581;BME280;6861;46.170;7.222;2022-10-16T05:42:42;96298.34;;;15.29;57.50
13581;BME280;6861;46.170;7.222;2022-10-16T05:45:10;96302.06;;;15.28;57.93
13581;BME280;6861;46.170;7.222;2022-10-16T05:47:37;96298.34;;;15.29;57.49
13581;BME280;6861;46.170;7.222;2022-10-16T05:50:05;96292.56;;;15.27;57.82
13581;BME280;6861;46.170;7.222;2022-10-16T05:52:32;96293.72;;;15.21;57.31
13581;BME280;6861;46.170;7.222;2022-10-16T05:55:00;96302.97;;;15.18;57.49
13581;BME280;6861;46.170;7.222;2022-10-16T05:57:27;96299.06;;;15.16;57.57
13581;BME280;6861;46.170;7.222;2022-10-16T05:59:54;96303.53;;;15.15;57.58
13581;BME280;6861;46.170;7.222;2022-10-16T06:02:21;96305.63;;;15.18;57.72
13581;BME280;6861;46.170;7.222;2022-10-16T06:04:48;96303.75;;;15.19;57.74
13581;BME280;6861;46.170;7.222;2022-10-16T06:07:15;96310.88;;;15.18;57.29
13581;BME280;6861;46.170;7.222;2022-10-16T06:09:42;96309.59;;;15.16;57.52
13581;BME280;6861;46.170;7.222;2022-10-16T06:12:10;96320.66;;;15.18;57.57
13581;BME280;6861;46.170;7.222;2022-10-16T06:14:37;96311.38;;;15.20;56.98
13581;BME280;6861;46.170;7.222;2022-10-16T06:17:04;96310.53;;;15.25;57.14
13581;BME280;6861;46.170;7.222;2022-10-16T06:19:31;96307.41;;;15.23;57.21
13581;BME280;6861;46.170;7.222;2022-10-16T06:21:58;96308.47;;;15.22;57.35
13581;BME280;6861;46.170;7.222;2022-10-16T06:24:25;96306.91;;;15.21;57.26
13581;BME280;6861;46.170;7.222;2022-10-16T06:26:52;96310.59;;;15.20;57.24
13581;BME280;6861;46.170;7.222;2022-10-16T06:29:20;96312.16;;;15.21;57.53
13581;BME280;6861;46.170;7.222;2022-10-16T06:31:47;96315.31;;;15.23;57.50
13581;BME280;6861;46.170;7.222;2022-10-16T06:34:14;96321.56;;;15.27;57.35
13581;BME280;6861;46.170;7.222;2022-10-16T06:36:41;96319.44;;;15.29;57.45
13581;BME280;6861;46.170;7.222;2022-10-16T06:39:08;96332.06;;;15.32;57.52
13581;BME280;6861;46.170;7.222;2022-10-16T06:41:35;96309.03;;;15.19;57.64
13581;BME280;6861;46.170;7.222;2022-10-16T06:44:05;96336.25;;;15.33;57.50
13581;BME280;6861;46.170;7.222;2022-10-16T06:46:34;96347.31;;;15.35;57.23
13581;BME280;6861;46.170;7.222;2022-10-16T06:49:01;96353.06;;;15.37;57.23
13581;BME280;6861;46.170;7.222;2022-10-16T06:51:28;96351.72;;;15.39;57.12
13581;BME280;6861;46.170;7.222;2022-10-16T06:53:56;96363.84;;;15.40;56.84
13581;BME280;6861;46.170;7.222;2022-10-16T06:56:25;96362.28;;;15.39;57.24
13581;BME280;6861;46.170;7.222;2022-10-16T06:58:52;96360.91;;;15.42;56.95
13581;BME280;6861;46.170;7.222;2022-10-16T07:01:21;96357.78;;;15.40;56.77
13581;BME280;6861;46.170;7.222;2022-10-16T07:03:50;96355.66;;;15.42;56.69
13581;BME280;6861;46.170;7.222;2022-10-16T07:06:18;96368.25;;;15.45;56.60
13581;BME280;6861;46.170;7.222;2022-10-16T07:08:46;96363.47;;;15.47;56.60
13581;BME280;6861;46.170;7.222;2022-10-16T07:11:15;96361.34;;;15.49;57.40
13581;BME280;6861;46.170;7.222;2022-10-16T07:13:43;96364.47;;;15.51;57.37
13581;BME280;6861;46.170;7.222;2022-10-16T07:16:11;96367.06;;;15.56;57.29
13581;BME280;6861;46.170;7.222;2022-10-16T07:18:39;96367.56;;;15.58;57.36
13581;BME280;6861;46.170;7.222;2022-10-16T07:21:10;96369.63;;;15.61;57.38
13581;BME280;6861;46.170;7.222;2022-10-16T07:23:37;96373.31;;;15.60;58.15
13581;BME280;6861;46.170;7.222;2022-10-16T07:26:05;96370.25;;;15.53;58.13
13581;BME280;6861;46.170;7.222;2022-10-16T07:28:32;96373.53;;;15.45;57.89
13581;BME280;6861;46.170;7.222;2022-10-16T07:31:00;96375.75;;;15.38;58.25
13581;BME280;6861;46.170;7.222;2022-10-16T07:33:28;96378.16;;;15.34;58.25
13581;BME280;6861;46.170;7.222;2022-10-16T07:35:55;96382.72;;;15.29;58.48
13581;BME280;6861;46.170;7.222;2022-10-16T07:38:23;96379.16;;;15.20;58.95
13581;BME280;6861;46.170;7.222;2022-10-16T07:40:55;96387.97;;;15.10;58.96
13581;BME280;6861;46.170;7.222;2022-10-16T07:43:22;96392.28;;;15.01;59.57
13581;BME280;6861;46.170;7.222;2022-10-16T07:45:50;96397.91;;;14.94;59.59
13581;BME280;6861;46.170;7.222;2022-10-16T07:48:17;96397.13;;;14.94;59.61
13581;BME280;6861;46.170;7.222;2022-10-16T07:50:44;96400.47;;;14.99;59.86
13581;BME280;6861;46.170;7.222;2022-10-16T07:53:11;96409.63;;;15.07;59.54
13581;BME280;6861;46.170;7.222;2022-10-16T07:55:40;96403.06;;;15.04;59.15
13581;BME280;6861;46.170;7.222;2022-10-16T07:58:07;96406.75;;;15.03;59.48
13581;BME280;6861;46.170;7.222;2022-10-16T08:00:35;96405.75;;;14.99;59.64
13581;BME280;6861;46.170;7.222;2022-10-16T08:03:02;96400.59;;;14.89;59.73
13581;BME280;6861;46.170;7.222;2022-10-16T08:05:31;96412.41;;;14.92;60.20
13581;BME280;6861;46.170;7.222;2022-10-16T08:07:58;96407.88;;;14.97;59.99
13581;BME280;6861;46.170;7.222;2022-10-16T08:10:26;96409.09;;;15.05;59.65
13581;BME280;6861;46.170;7.222;2022-10-16T08:12:55;96410.84;;;15.15;59.59
13581;BME280;6861;46.170;7.222;2022-10-16T08:15:22;96412.84;;;15.23;59.40
13581;BME280;6861;46.170;7.222;2022-10-16T08:17:56;96409.09;;;15.29;59.11
13581;BME280;6861;46.170;7.222;2022-10-16T08:20:23;96406.94;;;15.31;59.03
13581;BME280;6861;46.170;7.222;2022-10-16T08:22:50;96403.25;;;15.32;59.65
13581;BME280;6861;46.170;7.222;2022-10-16T08:25:17;96401.09;;;15.34;59.43
13581;BME280;6861;46.170;7.222;2022-10-16T08:27:44;96408.38;;;15.42;59.32
13581;BME280;6861;46.170;7.222;2022-10-16T08:30:13;96408.25;;;15.52;59.14
13581;BME280;6861;46.170;7.222;2022-10-16T08:32:40;96398.84;;;15.65;58.81
13581;BME280;6861;46.170;7.222;2022-10-16T08:35:08;96398.41;;;15.77;58.39
13581;BME280;6861;46.170;7.222;2022-10-16T08:37:36;96409.59;;;15.87;58.32
13581;BME280;6861;46.170;7.222;2022-10-16T08:40:04;96417.09;;;15.99;58.37
13581;BME280;6861;46.170;7.222;2022-10-16T08:42:45;96416.06;;;16.14;57.89
13581;BME280;6861;46.170;7.222;2022-10-16T08:45:33;96411.72;;;16.36;57.79
13581;BME280;6861;46.170;7.222;2022-10-16T08:48:10;96416.84;;;16.60;57.16
13581;BME280;6861;46.170;7.222;2022-10-16T08:50:40;96414.94;;;16.80;57.16
13581;BME280;6861;46.170;7.222;2022-10-16T08:53:14;96415.13;;;16.97;56.76
13581;BME280;6861;46.170;7.222;2022-10-16T08:55:44;96412.78;;;17.09;56.30
13581;BME280;6861;46.170;7.222;2022-10-16T08:58:13;96407.97;;;17.25;54.58
13581;BME280;6861;46.170;7.222;2022-10-16T09:00:45;96415.22;;;17.33;54.70
13581;BME280;6861;46.170;7.222;2022-10-16T09:03:20;96403.91;;;17.41;54.09
13581;BME280;6861;46.170;7.222;2022-10-16T09:06:15;96405.84;;;17.49;54.39
13581;BME280;6861;46.170;7.222;2022-10-16T09:08:58;96402.69;;;17.61;54.19
13581;BME280;6861;46.170;7.222;2022-10-16T09:11:39;96407.38;;;17.78;54.03
13581;BME280;6861;46.170;7.222;2022-10-16T09:14:18;96395.53;;;17.97;53.67
13581;BME280;6861;46.170;7.222;2022-10-16T09:16:57;96395.69;;;18.23;53.29
13581;BME280;6861;46.170;7.222;2022-10-16T09:19:30;96395.06;;;18.49;53.10
13581;BME280;6861;46.170;7.222;2022-10-16T09:21:59;96379.59;;;18.73;52.68
13581;BME280;6861;46.170;7.222;2022-10-16T09:24:29;96387.03;;;19.02;52.65
13581;BME280;6861;46.170;7.222;2022-10-16T09:26:56;96380.66;;;19.29;52.12
13581;BME280;6861;46.170;7.222;2022-10-16T09:29:23;96386.03;;;19.55;50.94
13581;BME280;6861;46.170;7.222;2022-10-16T09:31:50;96379.19;;;19.80;50.38
13581;BME280;6861;46.170;7.222;2022-10-16T09:34:27;96380.53;;;20.03;49.54
13581;BME280;6861;46.170;7.222;2022-10-16T09:36:57;96385.53;;;20.22;49.14
13581;BME280;6861;46.170;7.222;2022-10-16T09:39:25;96378.47;;;20.35;49.10
13581;BME280;6861;46.170;7.222;2022-10-16T09:41:52;96386.88;;;20.54;48.69
13581;BME280;6861;46.170;7.222;2022-10-16T09:44:24;96378.38;;;20.69;48.54
13581;BME280;6861;46.170;7.222;2022-10-16T09:47:01;96374.25;;;20.80;48.12
13581;BME280;6861;46.170;7.222;2022-10-16T09:49:30;96371.97;;;21.00;44.27
13581;BME280;6861;46.170;7.222;2022-10-16T09:52:04;96372.06;;;21.12;44.61
13581;BME280;6861;46.170;7.222;2022-10-16T09:54:31;96376.41;;;21.25;44.75
13581;BME280;6861;46.170;7.222;2022-10-16T09:57:05;96371.16;;;21.37;44.83
13581;BME280;6861;46.170;7.222;2022-10-16T09:59:32;96367.00;;;21.48;44.73
13581;BME280;6861;46.170;7.222;2022-10-16T10:02:03;96363.50;;;21.56;44.00
13581;BME280;6861;46.170;7.222;2022-10-16T10:04:41;96364.63;;;21.68;43.96
13581;BME280;6861;46.170;7.222;2022-10-16T10:07:17;96370.03;;;21.80;43.61
13581;BME280;6861;46.170;7.222;2022-10-16T10:09:45;96357.19;;;21.94;44.05
13581;BME280;6861;46.170;7.222;2022-10-16T10:12:21;96347.06;;;22.08;43.93
13581;BME280;6861;46.170;7.222;2022-10-16T10:14:49;96353.53;;;22.19;43.63
13581;BME280;6861;46.170;7.222;2022-10-16T10:17:19;96350.47;;;22.30;43.40
13581;BME280;6861;46.170;7.222;2022-10-16T10:19:50;96348.47;;;22.39;42.61
13581;BME280;6861;46.170;7.222;2022-10-16T10:22:30;96345.38;;;22.49;42.52
13581;BME280;6861;46.170;7.222;2022-10-16T10:25:14;96351.69;;;22.56;42.38
13581;BME280;6861;46.170;7.222;2022-10-16T10:30:38;96332.50;;;22.75;42.10
13581;BME280;6861;46.170;7.222;2022-10-16T10:33:20;96329.41;;;22.85;41.34
13581;BME280;6861;46.170;7.222;2022-10-16T10:35:58;96331.50;;;22.92;41.34
13581;BME280;6861;46.170;7.222;2022-10-16T10:38:34;96324.16;;;23.01;40.86
13581;BME280;6861;46.170;7.222;2022-10-16T10:41:15;96332.06;;;23.10;40.51
13581;BME280;6861;46.170;7.222;2022-10-16T10:43:55;96316.69;;;23.19;40.30
13581;BME280;6861;46.170;7.222;2022-10-16T10:46:32;96308.22;;;23.29;40.56
13581;BME280;6861;46.170;7.222;2022-10-16T10:49:13;96311.53;;;23.38;39.94
13581;BME280;6861;46.170;7.222;2022-10-16T10:51:51;96301.78;;;23.46;39.88
13581;BME280;6861;46.170;7.222;2022-10-16T10:54:27;96302.81;;;23.53;39.19
13581;BME280;6861;46.170;7.222;2022-10-16T10:57:02;96298.00;;;23.59;39.00
13581;BME280;6861;46.170;7.222;2022-10-16T10:59:54;96293.19;;;23.65;38.72
13581;BME280;6861;46.170;7.222;2022-10-16T11:02:31;96285.72;;;23.70;38.96
13581;BME280;6861;46.170;7.222;2022-10-16T11:05:27;96283.56;;;23.76;39.03
13581;BME280;6861;46.170;7.222;2022-10-16T11:08:00;96273.41;;;23.81;38.88
13581;BME280;6861;46.170;7.222;2022-10-16T11:10:32;96275.50;;;23.88;38.78
13581;BME280;6861;46.170;7.222;2022-10-16T11:13:10;96268.78;;;23.94;38.53
13581;BME280;6861;46.170;7.222;2022-10-16T11:15:43;96265.41;;;23.97;38.06
13581;BME280;6861;46.170;7.222;2022-10-16T11:18:16;96265.84;;;23.99;38.24
13581;BME280;6861;46.170;7.222;2022-10-16T11:20:50;96265.50;;;24.01;37.63
13581;BME280;6861;46.170;7.222;2022-10-16T11:23:24;96262.06;;;24.00;37.59
13581;BME280;6861;46.170;7.222;2022-10-16T11:25:54;96258.19;;;23.98;37.51
13581;BME280;6861;46.170;7.222;2022-10-16T11:28:26;96256.53;;;23.93;37.24
13581;BME280;6861;46.170;7.222;2022-10-16T11:30:57;96251.44;;;23.88;36.67
13581;BME280;6861;46.170;7.222;2022-10-16T11:33:29;96240.56;;;23.81;36.83
13581;BME280;6861;46.170;7.222;2022-10-16T11:36:03;96232.34;;;23.74;36.80
13581;BME280;6861;46.170;7.222;2022-10-16T11:38:39;96239.84;;;23.68;37.44
13581;BME280;6861;46.170;7.222;2022-10-16T11:41:15;96233.19;;;23.62;37.71
13581;BME280;6861;46.170;7.222;2022-10-16T11:43:50;96229.66;;;23.58;37.61
13581;BME280;6861;46.170;7.222;2022-10-16T11:46:20;96225.78;;;23.56;37.50
13581;BME280;6861;46.170;7.222;2022-10-16T11:48:52;96219.53;;;23.51;37.99
13581;BME280;6861;46.170;7.222;2022-10-16T11:51:26;96216.41;;;23.49;37.64
13581;BME280;6861;46.170;7.222;2022-10-16T11:54:02;96212.19;;;23.48;37.27
13581;BME280;6861;46.170;7.222;2022-10-16T11:56:32;96211.75;;;23.46;37.90
13581;BME280;6861;46.170;7.222;2022-10-16T11:59:06;96210.19;;;23.45;37.75
13581;BME280;6861;46.170;7.222;2022-10-16T12:01:40;96199.53;;;23.45;37.61
13581;BME280;6861;46.170;7.222;2022-10-16T12:04:19;96198.75;;;23.45;37.22
13581;BME280;6861;46.170;7.222;2022-10-16T12:06:52;96183.06;;;23.43;36.91
13581;BME280;6861;46.170;7.222;2022-10-16T12:09:26;96190.38;;;23.46;36.91
13581;BME280;6861;46.170;7.222;2022-10-16T12:11:54;96189.28;;;23.47;36.31
13581;BME280;6861;46.170;7.222;2022-10-16T12:14:34;96175.91;;;23.47;35.95
13581;BME280;6861;46.170;7.222;2022-10-16T12:17:03;96176.69;;;23.48;36.01
13581;BME280;6861;46.170;7.222;2022-10-16T12:19:32;96182.81;;;23.48;35.98
13581;BME280;6861;46.170;7.222;2022-10-16T12:22:00;96175.22;;;23.50;36.02
13581;BME280;6861;46.170;7.222;2022-10-16T12:24:35;96172.22;;;23.52;35.72
13581;BME280;6861;46.170;7.222;2022-10-16T12:27:04;96170.78;;;23.54;35.87
13581;BME280;6861;46.170;7.222;2022-10-16T12:29:36;96170.53;;;23.60;35.73
13581;BME280;6861;46.170;7.222;2022-10-16T12:32:05;96164.06;;;23.61;35.42
13581;BME280;6861;46.170;7.222;2022-10-16T12:34:44;96172.19;;;23.64;35.03
13581;BME280;6861;46.170;7.222;2022-10-16T12:37:18;96168.81;;;23.67;35.42
13581;BME280;6861;46.170;7.222;2022-10-16T12:39:49;96164.69;;;23.70;35.62
13581;BME280;6861;46.170;7.222;2022-10-16T12:42:22;96163.56;;;23.71;35.11
13581;BME280;6861;46.170;7.222;2022-10-16T12:44:50;96156.75;;;23.73;35.23
13581;BME280;6861;46.170;7.222;2022-10-16T12:47:34;96154.94;;;23.77;35.94
13581;BME280;6861;46.170;7.222;2022-10-16T12:50:03;96149.25;;;23.79;36.05
13581;BME280;6861;46.170;7.222;2022-10-16T12:52:36;96154.69;;;23.82;35.06
13581;BME280;6861;46.170;7.222;2022-10-16T12:55:12;96154.00;;;23.85;34.56
13581;BME280;6861;46.170;7.222;2022-10-16T12:57:56;96156.75;;;23.89;34.37
13581;BME280;6861;46.170;7.222;2022-10-16T13:00:32;96153.41;;;23.92;34.64
13581;BME280;6861;46.170;7.222;2022-10-16T13:06:11;96145.13;;;23.97;35.27
13581;BME280;6861;46.170;7.222;2022-10-16T13:08:56;96156.25;;;23.99;35.74
13581;BME280;6861;46.170;7.222;2022-10-16T13:11:37;96152.88;;;24.02;35.84
13581;BME280;6861;46.170;7.222;2022-10-16T13:14:36;96146.84;;;24.05;35.69
13581;BME280;6861;46.170;7.222;2022-10-16T13:17:12;96144.59;;;24.07;35.93
13581;BME280;6861;46.170;7.222;2022-10-16T13:19:50;96154.59;;;24.10;35.80
13581;BME280;6861;46.170;7.222;2022-10-16T13:22:24;96152.34;;;24.12;35.87
13581;BME280;6861;46.170;7.222;2022-10-16T13:25:06;96150.13;;;24.14;36.43
13581;BME280;6861;46.170;7.222;2022-10-16T13:27:46;96155.53;;;24.18;36.29
13581;BME280;6861;46.170;7.222;2022-10-16T13:30:19;96158.28;;;24.22;36.20
13581;BME280;6861;46.170;7.222;2022-10-16T13:32:49;96157.59;;;24.25;35.95
13581;BME280;6861;46.170;7.222;2022-10-16T13:35:25;96158.03;;;24.27;36.11
13581;BME280;6861;46.170;7.222;2022-10-16T13:38:03;96154.66;;;24.30;35.50
13581;BME280;6861;46.170;7.222;2022-10-16T13:40:31;96162.00;;;24.33;35.70